sensor_id;sensor_type;location;lat;lon;timestamp;pressure;altitude;pressure_sealevel;temperature;humidity
11888;BME280;6003;42.756;23.130;2023-02-19T00:01:30;154166.53;;;6.83;65.11
11888;BME280;6003;42.756;23.130;2023-02-19T00:03:59;154155.94;;;6.78;65.15
11888;BME280;6003;42.756;23.130;2023-02-19T00:06:28;154173.13;;;6.85;65.39
11888;BME280;6003;42.756;23.130;2023-02-19T00:08:56;154155.94;;;6.78;65.59
11888;BME280;6003;42.756;23.130;2023-02-19T00:11:25;154167.84;;;6.83;65.81
11888;BME280;6003;42.756;23.130;2023-02-19T00:13:53;154170.44;;;6.84;66.05
11888;BME280;6003;42.756;23.130;2023-02-19T00:16:25;154166.53;;;6.83;65.54
11888;BME280;6003;42.756;23.130;2023-02-19T00:18:53;154159.94;;;6.80;65.70
11888;BME280;6003;42.756;23.130;2023-02-19T00:21:20;154129.63;;;6.68;66.18
11888;BME280;6003;42.756;23.130;2023-02-19T00:23:48;154121.72;;;6.65;66.03
11888;BME280;6003;42.756;23.130;2023-02-19T00:26:15;154116.44;;;6.63;66.19
11888;BME280;6003;42.756;23.130;2023-02-19T00:28:43;154116.44;;;6.63;66.40
11888;BME280;6003;42.756;23.130;2023-02-19T00:31:14;154108.53;;;6.60;66.52
11888;BME280;6003;42.756;23.130;2023-02-19T00:33:43;154098.03;;;6.56;66.81
11888;BME280;6003;42.756;23.130;2023-02-19T00:36:11;154116.44;;;6.63;66.71
11888;BME280;6003;42.756;23.130;2023-02-19T00:38:39;154100.63;;;6.57;67.05
11888;BME280;6003;42.756;23.130;2023-02-19T00:41:07;154126.97;;;6.67;66.36
11888;BME280;6003;42.756;23.130;2023-02-19T00:43:46;154125.66;;;6.67;66.51
11888;BME280;6003;42.756;23.130;2023-02-19T00:46:13;154150.72;;;6.76;66.88
11888;BME280;6003;42.756;23.130;2023-02-19T00:48:39;154166.53;;;6.83;66.52
11888;BME280;6003;42.756;23.130;2023-02-19T00:51:08;154171.75;;;6.85;67.23
11888;BME280;6003;42.756;23.130;2023-02-19T00:53:35;154186.25;;;6.90;67.00
11888;BME280;6003;42.756;23.130;2023-02-19T00:56:02;154207.34;;;6.98;66.37
11888;BME280;6003;42.756;23.130;2023-02-19T00:58:28;154229.75;;;7.07;66.04
11888;BME280;6003;42.756;23.130;2023-02-19T01:00:55;154265.34;;;7.21;65.45
11888;BME280;6003;42.756;23.130;2023-02-19T01:03:23;154298.34;;;7.34;65.80
11888;BME280;6003;42.756;23.130;2023-02-19T01:05:50;154340.50;;;7.50;65.45
11888;BME280;6003;42.756;23.130;2023-02-19T01:08:20;154378.72;;;7.65;64.45
11888;BME280;6003;42.756;23.130;2023-02-19T01:10:47;154393.25;;;7.71;63.63
11888;BME280;6003;42.756;23.130;2023-02-19T01:13:14;154423.56;;;7.82;63.83
11888;BME280;6003;42.756;23.130;2023-02-19T01:15:41;154480.31;;;8.04;62.33
11888;BME280;6003;42.756;23.130;2023-02-19T01:18:09;154530.44;;;8.24;62.18
11888;BME280;6003;42.756;23.130;2023-02-19T01:20:37;154539.66;;;8.27;62.04
11888;BME280;6003;42.756;23.130;2023-02-19T01:23:04;154537.03;;;8.26;62.62
11888;BME280;6003;42.756;23.130;2023-02-19T01:25:32;154514.63;;;8.18;61.80
11888;BME280;6003;42.756;23.130;2023-02-19T01:27:59;154498.81;;;8.11;62.53
11888;BME280;6003;42.756;23.130;2023-02-19T01:30:26;154493.50;;;8.09;61.08
11888;BME280;6003;42.756;23.130;2023-02-19T01:32:53;154505.34;;;8.14;60.79
11888;BME280;6003;42.756;23.130;2023-02-19T01:35:19;154511.94;;;8.17;61.23
11888;BME280;6003;42.756;23.130;2023-02-19T01:37:47;154446.00;;;7.91;62.03
11888;BME280;6003;42.756;23.130;2023-02-19T01:40:14;154424.94;;;7.83;61.41
11888;BME280;6003;42.756;23.130;2023-02-19T01:42:43;154423.56;;;7.82;62.27
11888;BME280;6003;42.756;23.130;2023-02-19T01:45:26;154424.94;;;7.83;60.78
11888;BME280;6003;42.756;23.130;2023-02-19T01:48:01;154398.53;;;7.73;61.37
11888;BME280;6003;42.756;23.130;2023-02-19T01:50:33;154406.44;;;7.76;61.04
11888;BME280;6003;42.756;23.130;2023-02-19T01:53:02;154385.34;;;7.67;62.00
11888;BME280;6003;42.756;23.130;2023-02-19T01:55:32;154377.41;;;7.64;62.30
11888;BME280;6003;42.756;23.130;2023-02-19T01:58:02;154364.22;;;7.59;62.67
11888;BME280;6003;42.756;23.130;2023-02-19T02:00:31;154322.06;;;7.43;62.06
11888;BME280;6003;42.756;23.130;2023-02-19T02:02:59;154320.75;;;7.42;63.44
11888;BME280;6003;42.756;23.130;2023-02-19T02:05:39;154299.66;;;7.34;63.91
11888;BME280;6003;42.756;23.130;2023-02-19T02:08:07;154285.16;;;7.29;62.73
11888;BME280;6003;42.756;23.130;2023-02-19T02:10:51;154245.56;;;7.13;63.96
11888;BME280;6003;42.756;23.130;2023-02-19T02:13:20;154235.03;;;7.09;64.03
11888;BME280;6003;42.756;23.130;2023-02-19T02:15:51;154204.72;;;6.97;64.56
11888;BME280;6003;42.756;23.130;2023-02-19T02:18:31;154203.44;;;6.97;64.54
11888;BME280;6003;42.756;23.130;2023-02-19T02:21:11;154219.25;;;7.03;64.32
11888;BME280;6003;42.756;23.130;2023-02-19T02:23:56;154219.25;;;7.03;64.56
11888;BME280;6003;42.756;23.130;2023-02-19T02:26:34;154207.34;;;6.98;65.05
11888;BME280;6003;42.756;23.130;2023-02-19T02:29:42;154212.63;;;7.00;65.17
11888;BME280;6003;42.756;23.130;2023-02-19T02:32:11;154219.25;;;7.03;64.67
11888;BME280;6003;42.756;23.130;2023-02-19T02:34:43;154228.44;;;7.07;64.93
11888;BME280;6003;42.756;23.130;2023-02-19T02:37:12;154232.44;;;7.08;64.24
11888;BME280;6003;42.756;23.130;2023-02-19T02:39:41;154237.66;;;7.10;64.02
11888;BME280;6003;42.756;23.130;2023-02-19T02:42:20;154245.56;;;7.13;65.05
11888;BME280;6003;42.756;23.130;2023-02-19T02:44:54;154241.66;;;7.12;63.89
11888;BME280;6003;42.756;23.130;2023-02-19T02:47:41;154253.53;;;7.16;64.02
11888;BME280;6003;42.756;23.130;2023-02-19T02:50:12;154235.03;;;7.09;64.72
11888;BME280;6003;42.756;23.130;2023-02-19T02:52:43;154245.56;;;7.13;64.11
11888;BME280;6003;42.756;23.130;2023-02-19T02:55:29;154245.56;;;7.13;64.40
11888;BME280;6003;42.756;23.130;2023-02-19T02:57:57;154242.94;;;7.12;64.24
11888;BME280;6003;42.756;23.130;2023-02-19T03:00:25;154239.03;;;7.11;65.20
11888;BME280;6003;42.756;23.130;2023-02-19T03:03:14;154220.53;;;7.04;65.10
11888;BME280;6003;42.756;23.130;2023-02-19T03:05:43;154224.53;;;7.05;65.52
11888;BME280;6003;42.756;23.130;2023-02-19T03:08:23;154240.34;;;7.11;64.31
11888;BME280;6003;42.756;23.130;2023-02-19T03:10:53;154257.44;;;7.18;64.11
11888;BME280;6003;42.756;23.130;2023-02-19T03:13:26;154257.44;;;7.18;64.79
11888;BME280;6003;42.756;23.130;2023-02-19T03:16:16;154250.84;;;7.15;63.91
11888;BME280;6003;42.756;23.130;2023-02-19T03:19:02;154248.22;;;7.14;64.29
11888;BME280;6003;42.756;23.130;2023-02-19T03:21:50;154264.06;;;7.20;63.70
11888;BME280;6003;42.756;23.130;2023-02-19T03:24:21;154274.56;;;7.24;63.50
11888;BME280;6003;42.756;23.130;2023-02-19T03:27:08;154266.66;;;7.21;64.10
11888;BME280;6003;42.756;23.130;2023-02-19T03:29:38;154279.88;;;7.27;64.01
11888;BME280;6003;42.756;23.130;2023-02-19T03:32:11;154282.47;;;7.28;63.89
11888;BME280;6003;42.756;23.130;2023-02-19T03:34:43;154298.34;;;7.34;63.51
11888;BME280;6003;42.756;23.130;2023-02-19T03:37:14;154303.59;;;7.36;63.46
11888;BME280;6003;42.756;23.130;2023-02-19T03:39:42;154307.56;;;7.37;63.67
11888;BME280;6003;42.756;23.130;2023-02-19T03:42:20;154315.47;;;7.40;62.81
11888;BME280;6003;42.756;23.130;2023-02-19T03:45:01;154329.97;;;7.46;63.05
11888;BME280;6003;42.756;23.130;2023-02-19T03:47:41;154316.78;;;7.41;63.16
11888;BME280;6003;42.756;23.130;2023-02-19T03:50:16;154322.06;;;7.43;63.46
11888;BME280;6003;42.756;23.130;2023-02-19T03:52:53;154329.97;;;7.46;62.88
11888;BME280;6003;42.756;23.130;2023-02-19T03:55:26;154329.97;;;7.46;63.33
11888;BME280;6003;42.756;23.130;2023-02-19T03:57:57;154358.97;;;7.57;62.52
11888;BME280;6003;42.756;23.130;2023-02-19T04:00:31;154341.81;;;7.51;63.28
11888;BME280;6003;42.756;23.130;2023-02-19T04:03:05;154340.50;;;7.50;62.68
11888;BME280;6003;42.756;23.130;2023-02-19T04:05:38;154312.84;;;7.39;63.12
11888;BME280;6003;42.756;23.130;2023-02-19T04:08:10;154293.06;;;7.32;63.29
11888;BME280;6003;42.756;23.130;2023-02-19T04:10:39;154257.44;;;7.18;64.28
11888;BME280;6003;42.756;23.130;2023-02-19T04:13:10;154271.97;;;7.23;63.51
11888;BME280;6003;42.756;23.130;2023-02-19T04:15:40;154271.97;;;7.23;63.71
11888;BME280;6003;42.756;23.130;2023-02-19T04:18:13;154271.97;;;7.23;63.34
11888;BME280;6003;42.756;23.130;2023-02-19T04:20:43;154257.44;;;7.18;63.73
11888;BME280;6003;42.756;23.130;2023-02-19T04:23:11;154250.84;;;7.15;63.14
11888;BME280;6003;42.756;23.130;2023-02-19T04:25:41;154264.06;;;7.20;63.53
11888;BME280;6003;42.756;23.130;2023-02-19T04:28:09;154274.56;;;7.24;63.66
11888;BME280;6003;42.756;23.130;2023-02-19T04:30:38;154253.53;;;7.16;63.56
11888;BME280;6003;42.756;23.130;2023-02-19T04:33:05;154269.34;;;7.22;63.20
11888;BME280;6003;42.756;23.130;2023-02-19T04:35:34;154254.84;;;7.17;64.52
11888;BME280;6003;42.756;23.130;2023-02-19T04:38:01;154253.53;;;7.16;64.00
11888;BME280;6003;42.756;23.130;2023-02-19T04:40:28;154262.75;;;7.20;64.22
11888;BME280;6003;42.756;23.130;2023-02-19T04:42:55;154252.16;;;7.16;63.91
11888;BME280;6003;42.756;23.130;2023-02-19T04:45:22;154245.56;;;7.13;63.87
11888;BME280;6003;42.756;23.130;2023-02-19T04:47:49;154237.66;;;7.10;63.99
11888;BME280;6003;42.756;23.130;2023-02-19T04:50:16;154227.13;;;7.06;64.30
11888;BME280;6003;42.756;23.130;2023-02-19T04:52:44;154221.84;;;7.04;64.93
11888;BME280;6003;42.756;23.130;2023-02-19T04:55:11;154207.34;;;6.98;65.08
11888;BME280;6003;42.756;23.130;2023-02-19T04:57:38;154184.94;;;6.90;65.77
11888;BME280;6003;42.756;23.130;2023-02-19T05:00:06;154192.84;;;6.93;66.01
11888;BME280;6003;42.756;23.130;2023-02-19T05:02:41;154195.53;;;6.94;66.03
11888;BME280;6003;42.756;23.130;2023-02-19T05:05:08;154161.25;;;6.81;66.87
11888;BME280;6003;42.756;23.130;2023-02-19T05:07:35;154136.22;;;6.71;66.33
11888;BME280;6003;42.756;23.130;2023-02-19T05:10:03;154117.75;;;6.64;67.46
11888;BME280;6003;42.756;23.130;2023-02-19T05:12:30;154140.16;;;6.72;67.30
11888;BME280;6003;42.756;23.130;2023-02-19T05:14:57;154128.31;;;6.68;67.36
11888;BME280;6003;42.756;23.130;2023-02-19T05:17:24;154117.75;;;6.64;67.98
11888;BME280;6003;42.756;23.130;2023-02-19T05:19:51;154120.41;;;6.65;68.35
11888;BME280;6003;42.756;23.130;2023-02-19T05:22:18;154112.47;;;6.62;68.12
11888;BME280;6003;42.756;23.130;2023-02-19T05:24:45;154116.44;;;6.63;68.88
11888;BME280;6003;42.756;23.130;2023-02-19T05:27:13;154119.06;;;6.64;68.89
11888;BME280;6003;42.756;23.130;2023-02-19T05:29:40;154126.97;;;6.67;68.49
11888;BME280;6003;42.756;23.130;2023-02-19T05:32:07;154153.34;;;6.77;68.17
11888;BME280;6003;42.756;23.130;2023-02-19T05:34:34;154150.72;;;6.76;67.71
11888;BME280;6003;42.756;23.130;2023-02-19T05:37:01;154159.94;;;6.80;67.55
11888;BME280;6003;42.756;23.130;2023-02-19T05:39:27;154166.53;;;6.83;67.83
11888;BME280;6003;42.756;23.130;2023-02-19T05:41:54;154161.25;;;6.81;67.17
11888;BME280;6003;42.756;23.130;2023-02-19T05:44:24;154181.03;;;6.88;66.84
11888;BME280;6003;42.756;23.130;2023-02-19T05:46:51;154195.53;;;6.94;66.12
11888;BME280;6003;42.756;23.130;2023-02-19T05:49:18;154213.94;;;7.01;66.45
11888;BME280;6003;42.756;23.130;2023-02-19T05:51:45;154232.44;;;7.08;66.75
11888;BME280;6003;42.756;23.130;2023-02-19T05:54:11;154250.84;;;7.15;66.68
11888;BME280;6003;42.756;23.130;2023-02-19T05:56:40;154287.78;;;7.30;66.16
11888;BME280;6003;42.756;23.130;2023-02-19T05:59:14;154312.84;;;7.39;66.13
11888;BME280;6003;42.756;23.130;2023-02-19T06:01:43;154343.16;;;7.51;66.65
11888;BME280;6003;42.756;23.130;2023-02-19T06:04:10;154372.19;;;7.62;65.78
11888;BME280;6003;42.756;23.130;2023-02-19T06:06:38;154390.63;;;7.69;66.05
11888;BME280;6003;42.756;23.130;2023-02-19T06:09:06;154422.25;;;7.82;65.50
11888;BME280;6003;42.756;23.130;2023-02-19T06:11:33;154451.28;;;7.93;65.19
11888;BME280;6003;42.756;23.130;2023-02-19T06:14:00;154477.69;;;8.03;66.01
11888;BME280;6003;42.756;23.130;2023-02-19T06:16:27;154488.22;;;8.07;64.98
11888;BME280;6003;42.756;23.130;2023-02-19T06:18:55;154505.34;;;8.14;64.74
11888;BME280;6003;42.756;23.130;2023-02-19T06:21:22;154510.63;;;8.16;63.63
11888;BME280;6003;42.756;23.130;2023-02-19T06:23:49;154521.22;;;8.20;64.63
11888;BME280;6003;42.756;23.130;2023-02-19T06:26:18;154533.06;;;8.25;63.87
11888;BME280;6003;42.756;23.130;2023-02-19T06:28:47;154558.16;;;8.34;64.79
11888;BME280;6003;42.756;23.130;2023-02-19T06:31:15;154564.72;;;8.37;64.15
11888;BME280;6003;42.756;23.130;2023-02-19T06:33:42;154603.09;;;8.52;64.31
11888;BME280;6003;42.756;23.130;2023-02-19T06:36:12;154625.50;;;8.61;63.45
11888;BME280;6003;42.756;23.130;2023-02-19T06:38:39;154662.47;;;8.75;63.37
11888;BME280;6003;42.756;23.130;2023-02-19T06:41:06;154694.13;;;8.87;64.13
11888;BME280;6003;42.756;23.130;2023-02-19T06:43:34;154715.25;;;8.95;64.33
11888;BME280;6003;42.756;23.130;2023-02-19T06:46:03;154750.91;;;9.09;63.99
11888;BME280;6003;42.756;23.130;2023-02-19T06:48:31;154762.78;;;9.14;63.76
11888;BME280;6003;42.756;23.130;2023-02-19T06:50:58;154805.03;;;9.30;63.17
11888;BME280;6003;42.756;23.130;2023-02-19T06:53:27;154831.41;;;9.40;63.16
11888;BME280;6003;42.756;23.130;2023-02-19T06:55:57;154868.41;;;9.55;62.60
11888;BME280;6003;42.756;23.130;2023-02-19T06:58:25;154906.69;;;9.69;62.20
11888;BME280;6003;42.756;23.130;2023-02-19T07:00:52;154950.28;;;9.86;61.82
11888;BME280;6003;42.756;23.130;2023-02-19T07:03:19;155003.13;;;10.07;61.19
11888;BME280;6003;42.756;23.130;2023-02-19T07:05:46;155056.09;;;10.27;60.49
11888;BME280;6003;42.756;23.130;2023-02-19T07:08:13;155078.56;;;10.36;59.83
11888;BME280;6003;42.756;23.130;2023-02-19T07:10:43;155107.63;;;10.47;59.59
11888;BME280;6003;42.756;23.130;2023-02-19T07:13:11;155111.56;;;10.49;59.64
11888;BME280;6003;42.756;23.130;2023-02-19T07:15:38;155116.88;;;10.51;58.43
11888;BME280;6003;42.756;23.130;2023-02-19T07:18:04;155127.41;;;10.55;59.28
11888;BME280;6003;42.756;23.130;2023-02-19T07:20:35;155171.06;;;10.72;59.46
11888;BME280;6003;42.756;23.130;2023-02-19T07:23:01;155234.53;;;10.96;57.92
11888;BME280;6003;42.756;23.130;2023-02-19T07:25:28;155267.56;;;11.09;58.15
11888;BME280;6003;42.756;23.130;2023-02-19T07:27:56;155331.06;;;11.34;56.35
11888;BME280;6003;42.756;23.130;2023-02-19T07:30:23;155395.84;;;11.59;57.28
11888;BME280;6003;42.756;23.130;2023-02-19T07:32:50;155468.66;;;11.87;55.03
11888;BME280;6003;42.756;23.130;2023-02-19T07:35:17;155545.41;;;12.16;55.50
11888;BME280;6003;42.756;23.130;2023-02-19T07:37:44;155590.41;;;12.34;53.81
11888;BME280;6003;42.756;23.130;2023-02-19T07:40:11;155627.47;;;12.48;52.32
11888;BME280;6003;42.756;23.130;2023-02-19T07:42:37;155683.09;;;12.70;53.11
11888;BME280;6003;42.756;23.130;2023-02-19T07:45:06;155714.88;;;12.82;53.24
11888;BME280;6003;42.756;23.130;2023-02-19T07:47:33;155759.88;;;12.99;51.73
11888;BME280;6003;42.756;23.130;2023-02-19T07:50:00;155802.28;;;13.16;52.08
11888;BME280;6003;42.756;23.130;2023-02-19T07:52:27;155843.34;;;13.31;51.91
11888;BME280;6003;42.756;23.130;2023-02-19T07:54:53;155868.56;;;13.41;51.47
11888;BME280;6003;42.756;23.130;2023-02-19T07:57:20;155884.44;;;13.47;50.47
11888;BME280;6003;42.756;23.130;2023-02-19T07:59:47;155881.78;;;13.46;50.84
11888;BME280;6003;42.756;23.130;2023-02-19T08:02:17;155918.88;;;13.61;50.77
11888;BME280;6003;42.756;23.130;2023-02-19T08:05:01;155965.28;;;13.79;50.38
11888;BME280;6003;42.756;23.130;2023-02-19T08:07:32;155955.97;;;13.75;50.22
11888;BME280;6003;42.756;23.130;2023-02-19T08:09:59;155961.28;;;13.77;49.74
11888;BME280;6003;42.756;23.130;2023-02-19T08:12:43;155995.75;;;13.90;49.86
11888;BME280;6003;42.756;23.130;2023-02-19T08:15:27;156015.59;;;13.98;49.59
11888;BME280;6003;42.756;23.130;2023-02-19T08:17:56;156073.94;;;14.20;49.39
11888;BME280;6003;42.756;23.130;2023-02-19T08:20:22;156115.03;;;14.36;49.43
11888;BME280;6003;42.756;23.130;2023-02-19T08:22:59;156153.47;;;14.51;49.37
11888;BME280;6003;42.756;23.130;2023-02-19T08:25:26;156174.75;;;14.59;49.15
11888;BME280;6003;42.756;23.130;2023-02-19T08:27:54;156186.66;;;14.64;48.84
11888;BME280;6003;42.756;23.130;2023-02-19T08:30:21;156231.75;;;14.81;47.99
11888;BME280;6003;42.756;23.130;2023-02-19T09:57:15;156927.44;;;17.49;44.55
11888;BME280;6003;42.756;23.130;2023-02-19T09:59:45;156940.69;;;17.54;43.71
11888;BME280;6003;42.756;23.130;2023-02-19T10:02:16;156969.94;;;17.66;44.13
11888;BME280;6003;42.756;23.130;2023-02-19T10:04:45;156981.91;;;17.70;44.22
11888;BME280;6003;42.756;23.130;2023-02-19T10:07:13;156972.63;;;17.67;43.56
11888;BME280;6003;42.756;23.130;2023-02-19T10:09:44;156968.59;;;17.65;42.62
11888;BME280;6003;42.756;23.130;2023-02-19T10:12:15;157041.75;;;17.93;43.42
11888;BME280;6003;42.756;23.130;2023-02-19T10:14:45;157073.66;;;18.06;44.57
11888;BME280;6003;42.756;23.130;2023-02-19T10:17:20;157039.06;;;17.92;42.54
11888;BME280;6003;42.756;23.130;2023-02-19T10:19:48;156955.31;;;17.60;43.68
11888;BME280;6003;42.756;23.130;2023-02-19T10:22:14;156952.66;;;17.59;43.29
11888;BME280;6003;42.756;23.130;2023-02-19T10:24:42;156908.81;;;17.42;42.95
11888;BME280;6003;42.756;23.130;2023-02-19T10:27:11;156908.81;;;17.42;42.73
11888;BME280;6003;42.756;23.130;2023-02-19T10:29:42;156938.06;;;17.53;44.68
11888;BME280;6003;42.756;23.130;2023-02-19T10:32:14;156965.97;;;17.64;42.95
11888;BME280;6003;42.756;23.130;2023-02-19T10:34:43;156975.25;;;17.68;42.49
11888;BME280;6003;42.756;23.130;2023-02-19T10:37:13;156997.84;;;17.76;42.03
11888;BME280;6003;42.756;23.130;2023-02-19T10:39:42;157017.84;;;17.84;41.77
11888;BME280;6003;42.756;23.130;2023-02-19T10:42:18;157041.75;;;17.93;41.88
11888;BME280;6003;42.756;23.130;2023-02-19T10:44:50;156951.34;;;17.58;40.14
11888;BME280;6003;42.756;23.130;2023-02-19T10:47:21;156932.72;;;17.51;41.39
11888;BME280;6003;42.756;23.130;2023-02-19T10:49:49;156916.78;;;17.45;41.62
11888;BME280;6003;42.756;23.130;2023-02-19T10:52:20;156954.00;;;17.59;42.22
11888;BME280;6003;42.756;23.130;2023-02-19T10:54:49;156908.81;;;17.42;40.29
11888;BME280;6003;42.756;23.130;2023-02-19T10:57:25;156969.94;;;17.66;42.24
11888;BME280;6003;42.756;23.130;2023-02-19T10:59:57;156951.34;;;17.58;42.70
11888;BME280;6003;42.756;23.130;2023-02-19T11:02:26;156927.44;;;17.49;41.57
11888;BME280;6003;42.756;23.130;2023-02-19T11:05:16;156984.56;;;17.71;42.48
11888;BME280;6003;42.756;23.130;2023-02-19T11:07:46;156999.16;;;17.77;41.92
11888;BME280;6003;42.756;23.130;2023-02-19T11:10:24;156988.56;;;17.73;41.63
11888;BME280;6003;42.756;23.130;2023-02-19T11:12:53;156940.69;;;17.54;41.43
11888;BME280;6003;42.756;23.130;2023-02-19T11:15:25;156989.88;;;17.73;41.69
11888;BME280;6003;42.756;23.130;2023-02-19T11:17:55;157015.16;;;17.83;41.19
11888;BME280;6003;42.756;23.130;2023-02-19T11:20:22;157048.41;;;17.96;41.48
11888;BME280;6003;42.756;23.130;2023-02-19T11:22:50;157025.81;;;17.87;41.38
11888;BME280;6003;42.756;23.130;2023-02-19T11:25:19;157048.41;;;17.96;40.57
11888;BME280;6003;42.756;23.130;2023-02-19T11:27:57;157076.28;;;18.07;41.29
11888;BME280;6003;42.756;23.130;2023-02-19T11:30:35;157016.47;;;17.84;40.40
11888;BME280;6003;42.756;23.130;2023-02-19T11:33:25;157025.81;;;17.87;40.65
11888;BME280;6003;42.756;23.130;2023-02-19T11:35:58;156939.38;;;17.54;39.55
11888;BME280;6003;42.756;23.130;2023-02-19T11:38:26;156973.94;;;17.67;41.49
11888;BME280;6003;42.756;23.130;2023-02-19T11:40:58;156980.59;;;17.70;40.80
11888;BME280;6003;42.756;23.130;2023-02-19T11:46:30;156964.66;;;17.64;39.40
11888;BME280;6003;42.756;23.130;2023-02-19T11:49:10;156944.69;;;17.56;40.58
11888;BME280;6003;42.756;23.130;2023-02-19T11:54:45;156922.13;;;17.47;41.67
11888;BME280;6003;42.756;23.130;2023-02-19T11:57:23;156935.41;;;17.52;40.34
11888;BME280;6003;42.756;23.130;2023-02-19T12:00:00;156908.81;;;17.42;40.73
11888;BME280;6003;42.756;23.130;2023-02-19T12:02:49;156932.72;;;17.51;41.37
11888;BME280;6003;42.756;23.130;2023-02-19T12:05:34;156961.97;;;17.63;41.44
11888;BME280;6003;42.756;23.130;2023-02-19T12:08:46;156951.34;;;17.58;40.01
11888;BME280;6003;42.756;23.130;2023-02-19T12:11:34;156951.34;;;17.58;40.60
11888;BME280;6003;42.756;23.130;2023-02-19T12:17:20;156927.44;;;17.49;40.29
11888;BME280;6003;42.756;23.130;2023-02-19T12:20:12;156958.00;;;17.61;40.30
11888;BME280;6003;42.756;23.130;2023-02-19T12:22:49;156972.63;;;17.67;41.19
11888;BME280;6003;42.756;23.130;2023-02-19T12:25:33;156988.56;;;17.73;39.78
11888;BME280;6003;42.756;23.130;2023-02-19T12:28:17;157007.19;;;17.80;39.77
11888;BME280;6003;42.756;23.130;2023-02-19T12:31:20;156983.22;;;17.71;40.15
11888;BME280;6003;42.756;23.130;2023-02-19T12:34:15;156993.84;;;17.75;39.86
11888;BME280;6003;42.756;23.130;2023-02-19T12:36:55;156980.59;;;17.70;39.26
11888;BME280;6003;42.756;23.130;2023-02-19T12:39:31;157007.19;;;17.80;39.29
11888;BME280;6003;42.756;23.130;2023-02-19T12:42:06;156983.22;;;17.71;38.40
11888;BME280;6003;42.756;23.130;2023-02-19T12:44:41;156991.19;;;17.74;39.26
11888;BME280;6003;42.756;23.130;2023-02-19T12:47:16;156969.94;;;17.66;39.85
11888;BME280;6003;42.756;23.130;2023-02-19T12:49:47;156988.56;;;17.73;39.76
11888;BME280;6003;42.756;23.130;2023-02-19T12:52:19;156988.56;;;17.73;39.93
11888;BME280;6003;42.756;23.130;2023-02-19T12:54:50;157004.53;;;17.79;39.27
11888;BME280;6003;42.756;23.130;2023-02-19T12:57:22;157012.53;;;17.82;40.03
11888;BME280;6003;42.756;23.130;2023-02-19T12:59:53;157008.50;;;17.80;40.39
11888;BME280;6003;42.756;23.130;2023-02-19T13:02:26;157001.84;;;17.78;40.20
11888;BME280;6003;42.756;23.130;2023-02-19T13:05:00;156991.19;;;17.74;39.23
11888;BME280;6003;42.756;23.130;2023-02-19T13:07:36;156999.16;;;17.77;40.24
11888;BME280;6003;42.756;23.130;2023-02-19T13:10:25;156991.19;;;17.74;40.18
11888;BME280;6003;42.756;23.130;2023-02-19T13:12:56;156980.59;;;17.70;40.03
11888;BME280;6003;42.756;23.130;2023-02-19T13:15:30;156999.16;;;17.77;38.51
11888;BME280;6003;42.756;23.130;2023-02-19T13:17:59;156964.66;;;17.64;39.16
11888;BME280;6003;42.756;23.130;2023-02-19T13:20:30;156979.22;;;17.69;39.45
11888;BME280;6003;42.756;23.130;2023-02-19T13:23:04;156991.19;;;17.74;39.97
11888;BME280;6003;42.756;23.130;2023-02-19T13:29:26;156992.53;;;17.74;40.15
11888;BME280;6003;42.756;23.130;2023-02-19T13:32:15;156988.56;;;17.73;39.79
11888;BME280;6003;42.756;23.130;2023-02-19T13:34:53;157020.50;;;17.85;39.74
11888;BME280;6003;42.756;23.130;2023-02-19T13:37:24;157048.41;;;17.96;39.42
11888;BME280;6003;42.756;23.130;2023-02-19T13:39:54;157059.03;;;18.00;39.51
11888;BME280;6003;42.756;23.130;2023-02-19T13:42:26;157065.69;;;18.02;39.60
11888;BME280;6003;42.756;23.130;2023-02-19T13:44:54;157084.31;;;18.10;39.51
11888;BME280;6003;42.756;23.130;2023-02-19T13:50:23;157023.13;;;17.86;39.23
11888;BME280;6003;42.756;23.130;2023-02-19T13:52:50;157012.53;;;17.82;39.68
11888;BME280;6003;42.756;23.130;2023-02-19T13:55:52;156973.94;;;17.67;39.83
11888;BME280;6003;42.756;23.130;2023-02-19T14:04:56;156948.66;;;17.57;40.37
11888;BME280;6003;42.756;23.130;2023-02-19T14:07:49;156900.84;;;17.39;40.85
11888;BME280;6003;42.756;23.130;2023-02-19T14:17:04;156815.84;;;17.06;41.42
11888;BME280;6003;42.756;23.130;2023-02-19T14:19:57;156762.66;;;16.86;41.06
11888;BME280;6003;42.756;23.130;2023-02-19T14:22:47;156758.72;;;16.84;41.44
11888;BME280;6003;42.756;23.130;2023-02-19T14:25:35;156750.75;;;16.81;41.46
11888;BME280;6003;42.756;23.130;2023-02-19T14:28:12;156742.78;;;16.78;41.78
11888;BME280;6003;42.756;23.130;2023-02-19T14:30:45;156762.66;;;16.86;41.06
11888;BME280;6003;42.756;23.130;2023-02-19T14:33:17;156772.00;;;16.89;40.77
11888;BME280;6003;42.756;23.130;2023-02-19T14:35:46;156810.53;;;17.04;40.62
11888;BME280;6003;42.756;23.130;2023-02-19T14:38:18;156833.09;;;17.13;40.02
11888;BME280;6003;42.756;23.130;2023-02-19T14:40:47;156847.72;;;17.19;39.68
11888;BME280;6003;42.756;23.130;2023-02-19T14:43:16;156884.91;;;17.33;39.59
11888;BME280;6003;42.756;23.130;2023-02-19T14:45:47;156868.97;;;17.27;39.60
11888;BME280;6003;42.756;23.130;2023-02-19T14:48:20;156882.22;;;17.32;39.15
11888;BME280;6003;42.756;23.130;2023-02-19T14:50:50;156868.97;;;17.27;41.46
11888;BME280;6003;42.756;23.130;2023-02-19T14:53:21;156853.03;;;17.21;41.81
11888;BME280;6003;42.756;23.130;2023-02-19T14:55:49;156829.09;;;17.11;43.04
11888;BME280;6003;42.756;23.130;2023-02-19T14:58:20;156799.88;;;17.00;44.22
11888;BME280;6003;42.756;23.130;2023-02-19T15:00:47;156785.31;;;16.95;44.30
11888;BME280;6003;42.756;23.130;2023-02-19T15:03:27;156754.72;;;16.83;44.48
11888;BME280;6003;42.756;23.130;2023-02-19T15:05:57;156696.28;;;16.60;45.11
11888;BME280;6003;42.756;23.130;2023-02-19T15:08:30;156672.31;;;16.51;46.30
11888;BME280;6003;42.756;23.130;2023-02-19T15:11:00;156617.91;;;16.30;46.61
11888;BME280;6003;42.756;23.130;2023-02-19T15:13:28;156552.84;;;16.05;46.63